createdAt,value
2023-05-10T00:00:18.616Z,17.20
2023-05-10T00:02:46.693Z,16.63
2023-05-10T00:05:14.442Z,16.43
2023-05-10T00:07:45.499Z,18.33
2023-05-10T00:10:13.662Z,19.40
2023-05-10T00:12:41.477Z,21.73
2023-05-10T00:15:11.415Z,19.80
2023-05-10T00:17:39.107Z,19.37
2023-05-10T00:20:07.827Z,19.70
2023-05-10T00:22:35.587Z,20.50
2023-05-10T00:25:03.744Z,20.70
2023-05-10T00:27:31.416Z,21.97
2023-05-10T00:29:59.110Z,21.63
2023-05-10T00:32:28.137Z,21.47
2023-05-10T00:34:55.795Z,19.17
2023-05-10T00:37:23.795Z,19.73
2023-05-10T00:39:51.457Z,20.87
2023-05-10T00:42:19.151Z,22.40
2023-05-10T00:44:47.639Z,22.97
2023-05-10T00:47:15.473Z,23.17
2023-05-10T00:49:44.635Z,23.60
2023-05-10T00:52:12.405Z,25.27
2023-05-10T00:54:40.137Z,26.77
2023-05-10T00:57:07.845Z,25.67
2023-05-10T00:59:35.569Z,25.13
2023-05-10T01:02:03.931Z,24.80
2023-05-10T01:04:32.322Z,25.43
2023-05-10T01:07:02.032Z,26.33
2023-05-10T01:09:30.026Z,26.07
2023-05-10T01:11:58.616Z,27.33
2023-05-10T01:14:27.185Z,26.60
2023-05-10T01:16:54.968Z,31.93
2023-05-10T01:19:26.091Z,29.73
2023-05-10T01:22:02.241Z,28.47
2023-05-10T01:24:47.794Z,28.43
2023-05-10T01:27:41.019Z,33.00
2023-05-10T01:30:59.450Z,29.30
2023-05-10T01:33:32.443Z,30.60
2023-05-10T01:36:07.553Z,32.33
2023-05-10T01:38:41.288Z,33.70
2023-05-10T01:41:15.835Z,29.93
2023-05-10T01:43:48.217Z,30.80
2023-05-10T01:46:19.151Z,32.43
2023-05-10T01:48:50.246Z,31.53
2023-05-10T01:51:21.098Z,32.50
2023-05-10T01:53:50.197Z,35.13
2023-05-10T01:56:18.292Z,34.33
2023-05-10T01:58:47.462Z,41.00
2023-05-10T02:01:15.464Z,33.90
2023-05-10T02:03:44.744Z,33.93
2023-05-10T02:06:15.388Z,34.20
2023-05-10T02:08:46.511Z,37.10
2023-05-10T02:11:15.646Z,36.30
2023-05-10T02:13:44.524Z,33.87
2023-05-10T02:16:12.530Z,36.83
2023-05-10T02:18:41.912Z,37.30
2023-05-10T02:21:10.757Z,36.63
2023-05-10T02:23:40.256Z,34.00
2023-05-10T02:26:08.609Z,36.00
2023-05-10T02:28:38.595Z,38.90
2023-05-10T02:31:07.590Z,37.53
2023-05-10T02:33:36.298Z,35.33
2023-05-10T02:36:04.850Z,35.60
2023-05-10T02:38:33.348Z,36.00
2023-05-10T02:41:03.831Z,36.13
2023-05-10T02:43:32.486Z,39.40
2023-05-10T02:46:00.275Z,38.43
2023-05-10T02:48:28.034Z,41.30
2023-05-10T02:50:57.239Z,39.60
2023-05-10T02:53:27.580Z,42.00
2023-05-10T02:55:59.830Z,40.83
2023-05-10T02:58:29.144Z,42.97
2023-05-10T03:00:56.882Z,38.60
2023-05-10T03:03:24.541Z,37.17
2023-05-10T03:05:54.741Z,41.77
2023-05-10T03:08:22.444Z,37.50
2023-05-10T03:10:57.825Z,39.47
2023-05-10T03:13:31.668Z,47.10
2023-05-10T03:16:03.068Z,42.50
2023-05-10T03:18:38.803Z,43.03
2023-05-10T03:21:11.572Z,41.00
2023-05-10T03:23:43.304Z,47.07
2023-05-10T03:26:11.377Z,45.00
2023-05-10T03:28:41.624Z,52.23
2023-05-10T03:31:09.461Z,48.63
2023-05-10T03:33:37.253Z,46.47
2023-05-10T03:36:05.510Z,46.70
2023-05-10T03:38:33.163Z,45.97
2023-05-10T03:41:00.815Z,49.57
2023-05-10T03:43:28.607Z,51.77
2023-05-10T03:45:57.675Z,50.37
2023-05-10T03:48:25.383Z,52.77
2023-05-10T03:50:53.049Z,55.90
2023-05-10T03:53:21.110Z,53.97
2023-05-10T03:55:48.788Z,51.67
2023-05-10T03:58:16.531Z,52.97
2023-05-10T04:00:46.088Z,52.33
2023-05-10T04:03:15.807Z,49.50
2023-05-10T04:05:43.624Z,53.20
2023-05-10T04:08:11.511Z,53.60
2023-05-10T04:10:39.151Z,48.23
2023-05-10T04:13:06.963Z,48.93
2023-05-10T04:15:34.785Z,43.07
2023-05-10T04:18:02.537Z,47.10
2023-05-10T04:20:31.563Z,46.70
2023-05-10T04:22:59.291Z,47.70
2023-05-10T04:25:27.003Z,50.53
2023-05-10T04:27:54.674Z,52.57
2023-05-10T04:30:22.722Z,53.87
2023-05-10T04:32:50.519Z,51.23
2023-05-10T04:35:18.357Z,55.83
2023-05-10T04:37:47.443Z,52.93
2023-05-10T04:40:15.416Z,45.53
2023-05-10T04:42:43.384Z,50.10
2023-05-10T04:45:11.947Z,51.87
2023-05-10T04:47:39.860Z,47.10
2023-05-10T04:50:08.844Z,53.40
2023-05-10T04:52:37.332Z,44.83
2023-05-10T04:55:08.460Z,47.10
2023-05-10T04:57:36.126Z,46.97
2023-05-10T05:00:04.034Z,52.20
2023-05-10T05:02:31.777Z,53.10
2023-05-10T05:04:59.757Z,51.40
2023-05-10T05:07:27.506Z,52.37
2023-05-10T05:09:55.238Z,56.00
2023-05-10T05:12:24.310Z,60.10
2023-05-10T05:14:51.988Z,65.97
2023-05-10T05:17:19.665Z,66.47
2023-05-10T05:19:47.742Z,68.17
2023-05-10T05:22:16.181Z,71.47
2023-05-10T05:24:44.541Z,70.83
2023-05-10T05:27:12.202Z,69.33
2023-05-10T05:29:41.236Z,73.10
2023-05-10T05:32:09.540Z,72.17
2023-05-10T05:34:37.341Z,68.83
2023-05-10T05:37:05.066Z,68.77
2023-05-10T05:39:32.702Z,63.50
2023-05-10T05:42:00.401Z,53.03
2023-05-10T05:44:29.838Z,55.07
2023-05-10T05:46:58.969Z,53.70
2023-05-10T05:49:26.623Z,61.07
2023-05-10T05:51:54.411Z,59.47
2023-05-10T05:54:22.517Z,55.60
2023-05-10T05:56:50.421Z,51.67
2023-05-10T05:59:18.173Z,52.47
2023-05-10T06:01:46.319Z,51.93
2023-05-10T06:04:15.402Z,53.00
2023-05-10T06:06:43.327Z,45.50
2023-05-10T06:09:11.050Z,48.83
2023-05-10T06:11:38.904Z,49.63
2023-05-10T06:14:08.142Z,50.83
2023-05-10T06:16:36.199Z,50.30
2023-05-10T06:19:04.195Z,41.53
2023-05-10T06:21:33.773Z,45.70
2023-05-10T06:24:01.471Z,40.63
2023-05-10T06:26:29.245Z,45.50
2023-05-10T06:28:56.910Z,43.40
2023-05-10T06:31:24.596Z,44.23
2023-05-10T06:33:53.287Z,45.40
2023-05-10T06:36:22.961Z,44.80
2023-05-10T06:38:52.255Z,37.43
2023-05-10T06:41:19.948Z,40.97
2023-05-10T06:43:47.602Z,36.60
2023-05-10T06:46:15.292Z,36.23
2023-05-10T06:48:42.993Z,31.37
2023-05-10T06:51:10.769Z,32.73
2023-05-10T06:53:38.465Z,31.87
2023-05-10T06:56:07.683Z,35.33
2023-05-10T06:58:35.344Z,28.50
2023-05-10T07:01:06.453Z,30.63
2023-05-10T07:03:34.282Z,27.80
2023-05-10T07:06:04.089Z,27.27
2023-05-10T07:08:32.276Z,30.43
2023-05-10T07:11:02.500Z,32.43
2023-05-10T07:13:32.385Z,32.63
2023-05-10T07:16:00.304Z,33.33
2023-05-10T07:18:28.349Z,32.70
2023-05-10T07:20:56.142Z,33.77
2023-05-10T07:23:23.835Z,36.37
2023-05-10T07:25:53.063Z,29.73
2023-05-10T07:28:20.931Z,32.37
2023-05-10T07:30:50.086Z,31.30
2023-05-10T07:33:18.152Z,32.13
2023-05-10T07:35:45.859Z,32.17
2023-05-10T07:38:13.559Z,33.63
2023-05-10T07:40:41.631Z,32.17
2023-05-10T07:43:09.365Z,32.07
2023-05-10T07:45:37.102Z,31.70
2023-05-10T07:48:06.445Z,31.97
2023-05-10T07:50:34.206Z,36.90
2023-05-10T07:53:01.904Z,35.43
2023-05-10T07:55:29.543Z,30.90
2023-05-10T07:57:57.771Z,33.50
2023-05-10T08:00:25.501Z,31.13
2023-05-10T08:02:53.966Z,34.67
2023-05-10T08:05:23.131Z,32.33
2023-05-10T08:07:50.803Z,29.80
2023-05-10T08:10:18.545Z,28.80
2023-05-10T08:12:46.224Z,25.60
2023-05-10T08:15:13.954Z,30.43
2023-05-10T08:17:42.004Z,29.00
2023-05-10T08:20:10.309Z,28.37
2023-05-10T08:22:39.357Z,24.03
2023-05-10T08:25:08.085Z,23.40
2023-05-10T08:27:35.810Z,27.87
2023-05-10T08:30:03.471Z,24.70
2023-05-10T08:32:31.180Z,20.00
2023-05-10T08:34:58.895Z,18.73
2023-05-10T08:37:26.661Z,24.27
2023-05-10T08:39:55.673Z,21.20
2023-05-10T08:42:24.713Z,20.13
2023-05-10T08:44:52.501Z,20.03
2023-05-10T08:47:20.776Z,17.40
2023-05-10T08:49:49.932Z,16.30
2023-05-10T08:52:18.895Z,17.97
2023-05-10T08:54:46.655Z,17.97
2023-05-10T08:57:15.675Z,17.33
2023-05-10T08:59:43.341Z,20.77
2023-05-10T09:02:12.238Z,17.57
2023-05-10T09:04:40.071Z,19.27
2023-05-10T09:07:08.448Z,15.07
2023-05-10T09:09:36.637Z,13.80
2023-05-10T09:12:04.364Z,22.17
2023-05-10T09:14:36.759Z,14.67
2023-05-10T09:17:04.764Z,19.17
2023-05-10T09:19:32.444Z,14.00
2023-05-10T09:22:01.189Z,11.90
2023-05-10T09:24:28.898Z,14.00
2023-05-10T09:26:59.268Z,17.53
2023-05-10T09:29:27.048Z,10.43
2023-05-10T09:31:56.606Z,13.53
2023-05-10T09:34:31.642Z,17.73
2023-05-10T09:37:01.809Z,10.83
2023-05-10T09:39:33.829Z,12.10
2023-05-10T09:42:04.682Z,13.27
2023-05-10T09:44:33.506Z,11.73
2023-05-10T09:47:02.674Z,13.93
2023-05-10T09:49:30.504Z,11.53
2023-05-10T09:52:05.400Z,13.73
2023-05-10T09:54:33.534Z,14.67
2023-05-10T09:57:01.659Z,11.77
2023-05-10T09:59:31.387Z,14.07
2023-05-10T10:01:59.888Z,14.73
2023-05-10T10:04:29.340Z,11.00
2023-05-10T10:07:04.879Z,11.10
2023-05-10T10:09:33.155Z,13.70
2023-05-10T10:12:02.250Z,9.87
2023-05-10T10:14:30.799Z,12.63
2023-05-10T10:19:30.645Z,7.60
2023-05-10T10:22:00.000Z,10.53
2023-05-10T10:24:27.670Z,7.37
2023-05-10T10:26:58.259Z,9.97
2023-05-10T10:29:30.701Z,10.63
2023-05-10T10:32:06.183Z,8.70
2023-05-10T10:34:35.313Z,10.47
2023-05-10T10:37:06.677Z,7.57
2023-05-10T10:39:37.386Z,7.90
2023-05-10T10:42:06.392Z,6.43
2023-05-10T10:44:39.057Z,8.77
2023-05-10T10:47:12.300Z,6.07
2023-05-10T10:49:52.534Z,7.27
2023-05-10T10:52:24.971Z,8.10
2023-05-10T10:54:53.988Z,7.60
2023-05-10T10:57:23.587Z,10.13
2023-05-10T10:59:51.812Z,6.07
2023-05-10T11:02:36.323Z,4.40
2023-05-10T11:05:45.894Z,5.73
2023-05-10T11:08:28.875Z,12.57
2023-05-10T11:11:08.963Z,5.27
2023-05-10T11:13:40.747Z,5.93
2023-05-10T11:16:16.878Z,5.87
2023-05-10T11:18:55.484Z,6.30
2023-05-10T11:21:23.665Z,5.53
2023-05-10T11:23:57.106Z,4.90
2023-05-10T11:26:26.608Z,4.63
2023-05-10T11:28:56.259Z,3.97
2023-05-10T11:31:24.757Z,3.90
2023-05-10T11:33:53.738Z,4.70
2023-05-10T11:36:22.509Z,6.17
2023-05-10T11:38:51.850Z,6.47
2023-05-10T11:41:22.704Z,6.87
2023-05-10T11:43:52.245Z,6.67
2023-05-10T11:46:21.609Z,4.90
2023-05-10T11:48:51.841Z,6.20
2023-05-10T11:51:22.930Z,6.53
2023-05-10T11:53:54.398Z,9.87
2023-05-10T11:56:22.775Z,6.57
2023-05-10T11:58:55.289Z,4.93
2023-05-10T12:01:23.255Z,4.67
2023-05-10T12:03:51.383Z,7.40
2023-05-10T12:06:20.776Z,5.33
2023-05-10T12:08:53.357Z,6.70
2023-05-10T12:11:23.083Z,6.13
2023-05-10T12:13:50.948Z,9.90
2023-05-10T12:16:19.750Z,7.67
2023-05-10T12:18:47.844Z,4.33
2023-05-10T12:21:16.842Z,9.37
2023-05-10T12:23:44.644Z,10.50
2023-05-10T12:26:12.490Z,5.30
2023-05-10T12:28:41.543Z,6.13
2023-05-10T12:31:09.419Z,5.83
2023-05-10T12:33:42.596Z,4.67
2023-05-10T12:36:11.300Z,5.37
2023-05-10T12:38:41.190Z,10.53
2023-05-10T12:41:09.898Z,6.40
2023-05-10T12:43:37.992Z,12.17
2023-05-10T12:46:10.802Z,5.93
2023-05-10T12:48:39.927Z,6.27
2023-05-10T12:51:10.240Z,6.13
2023-05-10T12:53:38.158Z,6.00
2023-05-10T12:56:06.456Z,6.80
2023-05-10T12:58:36.045Z,6.13
2023-05-10T13:01:05.100Z,5.27
2023-05-10T13:03:34.233Z,8.80
2023-05-10T13:06:01.925Z,5.53
2023-05-10T13:08:34.089Z,7.47
2023-05-10T13:11:01.956Z,4.77
2023-05-10T13:13:29.600Z,7.93
2023-05-10T13:15:57.249Z,9.43
2023-05-10T13:18:25.575Z,12.73
2023-05-10T13:20:56.698Z,10.20
2023-05-10T13:23:24.433Z,10.33
2023-05-10T13:25:52.090Z,8.00
2023-05-10T13:28:19.748Z,10.70
2023-05-10T13:30:47.433Z,7.10
2023-05-10T13:33:15.091Z,8.80
2023-05-10T13:35:42.800Z,9.90
2023-05-10T13:38:12.200Z,7.83
2023-05-10T13:40:39.864Z,11.53
2023-05-10T13:43:07.555Z,9.47
2023-05-10T13:45:35.204Z,8.47
2023-05-10T13:48:03.277Z,6.03
2023-05-10T13:50:31.019Z,6.30
2023-05-10T13:52:58.672Z,7.37
2023-05-10T13:55:28.059Z,5.97
2023-05-10T13:57:55.717Z,10.97
2023-05-10T14:00:23.728Z,10.13
2023-05-10T14:02:51.458Z,6.03
2023-05-10T14:05:22.253Z,8.50
2023-05-10T14:07:52.919Z,7.60
2023-05-10T14:10:20.981Z,10.17
2023-05-10T14:12:49.987Z,6.90
2023-05-10T14:15:18.331Z,10.63
2023-05-10T14:17:46.138Z,10.93
2023-05-10T14:20:13.890Z,11.33
2023-05-10T14:22:41.906Z,8.80
2023-05-10T14:25:10.594Z,12.17
2023-05-10T14:27:38.256Z,8.70
2023-05-10T14:30:08.877Z,9.33
2023-05-10T14:32:37.539Z,7.13
2023-05-10T14:35:06.926Z,10.43
2023-05-10T14:37:34.654Z,9.30
2023-05-10T14:40:02.428Z,9.77
2023-05-10T14:42:30.111Z,9.87
2023-05-10T14:44:58.188Z,8.00
2023-05-10T14:47:27.316Z,12.03
2023-05-10T14:49:55.052Z,13.77
2023-05-10T14:52:22.759Z,11.93
2023-05-10T14:54:50.421Z,9.40
2023-05-10T14:57:18.085Z,10.07
2023-05-10T14:59:45.756Z,10.27
2023-05-10T15:02:14.511Z,10.80
2023-05-10T15:04:43.919Z,14.57
2023-05-10T15:07:15.326Z,8.00
2023-05-10T15:09:43.092Z,6.93
2023-05-10T15:12:10.722Z,8.23
2023-05-10T15:14:38.384Z,6.93
2023-05-10T15:17:08.416Z,6.83
2023-05-10T15:19:36.902Z,13.27
2023-05-10T15:22:06.273Z,10.37
2023-05-10T15:24:33.979Z,10.30
2023-05-10T15:27:02.034Z,10.57
2023-05-10T15:29:30.492Z,8.93
2023-05-10T15:31:58.153Z,9.47
2023-05-10T15:34:25.807Z,7.87
2023-05-10T15:36:53.487Z,10.00
2023-05-10T15:39:22.494Z,11.73
2023-05-10T15:41:50.215Z,15.00
2023-05-10T15:44:17.875Z,13.20
2023-05-10T15:46:45.588Z,12.60
2023-05-10T15:49:13.285Z,11.20
2023-05-10T15:51:41.616Z,15.70
2023-05-10T15:54:09.294Z,12.07
2023-05-10T15:56:38.425Z,16.07
2023-05-10T15:59:08.573Z,11.03
2023-05-10T16:01:36.355Z,14.07
2023-05-10T16:04:04.343Z,14.33
2023-05-10T16:06:32.776Z,11.13
2023-05-10T16:09:00.415Z,12.83
2023-05-10T16:11:28.296Z,13.33
2023-05-10T16:13:57.387Z,12.90
2023-05-10T16:16:25.748Z,13.97
2023-05-10T16:18:53.513Z,14.37
2023-05-10T16:21:21.258Z,13.10
2023-05-10T16:23:48.945Z,11.73
2023-05-10T16:26:16.962Z,12.27
2023-05-10T16:28:44.644Z,12.43
2023-05-10T16:31:13.799Z,15.43
2023-05-10T16:33:41.484Z,12.77
2023-05-10T16:36:09.324Z,14.83
2023-05-10T16:38:37.735Z,12.73
2023-05-10T16:41:06.762Z,12.63
2023-05-10T16:43:34.511Z,13.77
2023-05-10T16:46:02.181Z,14.50
2023-05-10T16:48:31.249Z,16.30
2023-05-10T16:50:58.942Z,14.43
2023-05-10T16:53:26.850Z,14.70
2023-05-10T16:55:54.564Z,10.43
2023-05-10T16:58:22.285Z,14.20
2023-05-10T17:00:50.026Z,13.97
2023-05-10T17:03:17.936Z,14.77
2023-05-10T17:05:47.052Z,15.00
2023-05-10T17:08:14.784Z,13.90
2023-05-10T17:10:42.490Z,10.27
2023-05-10T17:13:10.893Z,10.73
2023-05-10T17:15:39.118Z,11.27
2023-05-10T17:18:07.424Z,11.80
2023-05-10T17:20:35.338Z,14.77
2023-05-10T17:23:04.408Z,12.67
2023-05-10T17:25:32.042Z,11.07
2023-05-10T17:27:59.763Z,13.33
2023-05-10T17:30:28.803Z,12.83
2023-05-10T17:32:56.577Z,11.60
2023-05-10T17:35:24.642Z,13.07
2023-05-10T17:37:52.389Z,10.20
2023-05-10T17:40:21.809Z,9.77
2023-05-10T17:42:49.703Z,11.03
2023-05-10T17:45:18.053Z,12.23
2023-05-10T17:47:46.322Z,12.63
2023-05-10T17:50:14.180Z,13.53
2023-05-10T17:52:41.848Z,13.33
2023-05-10T17:55:10.143Z,10.03
2023-05-10T17:57:39.179Z,10.97
2023-05-10T18:00:09.188Z,13.67
2023-05-10T18:02:37.371Z,11.57
2023-05-10T18:05:05.740Z,10.73
2023-05-10T18:07:33.581Z,13.93
2023-05-10T18:10:01.326Z,16.63
2023-05-10T18:12:29.089Z,20.00
2023-05-10T18:14:58.083Z,16.03
2023-05-10T18:17:26.267Z,13.33
2023-05-10T18:19:53.974Z,13.60
2023-05-10T18:22:21.645Z,18.00
2023-05-10T18:24:49.336Z,13.97
2023-05-10T18:27:17.216Z,15.03
2023-05-10T18:29:44.930Z,13.07
2023-05-10T18:32:13.996Z,13.43
2023-05-10T18:34:41.669Z,14.13
2023-05-10T18:37:09.962Z,14.37
2023-05-10T18:39:37.959Z,13.77
2023-05-10T18:42:06.286Z,10.80
2023-05-10T18:44:33.975Z,16.17
2023-05-10T18:47:01.644Z,17.63
2023-05-10T18:49:30.689Z,20.67
2023-05-10T18:51:58.449Z,16.70
2023-05-10T18:54:26.728Z,12.90
2023-05-10T18:56:54.424Z,13.13
2023-05-10T18:59:22.139Z,14.60
2023-05-10T19:01:51.305Z,18.57
2023-05-10T19:04:19.329Z,20.93
2023-05-10T19:06:48.369Z,20.37
2023-05-10T19:09:16.263Z,20.30
2023-05-10T19:11:44.008Z,24.57
2023-05-10T19:14:11.732Z,15.47
2023-05-10T19:16:41.613Z,15.60
2023-05-10T19:19:10.161Z,16.67
2023-05-10T19:21:39.994Z,14.83
2023-05-10T19:24:10.026Z,13.30
2023-05-10T19:26:38.318Z,16.23
2023-05-10T19:29:05.996Z,16.03
2023-05-10T19:31:34.645Z,18.57
2023-05-10T19:34:06.065Z,14.00
2023-05-10T19:36:34.372Z,18.13
2023-05-10T19:39:02.409Z,14.90
2023-05-10T19:41:31.876Z,18.00
2023-05-10T19:43:59.856Z,16.37
2023-05-10T19:46:27.658Z,16.77
2023-05-10T19:48:55.474Z,13.93
2023-05-10T19:51:23.184Z,22.00
2023-05-10T19:53:50.911Z,17.70
2023-05-10T19:56:19.467Z,14.87
2023-05-10T19:58:48.501Z,16.60
2023-05-10T20:01:16.249Z,19.03
2023-05-10T20:03:44.057Z,15.83
2023-05-10T20:06:12.178Z,20.27
2023-05-10T20:08:39.866Z,14.97
2023-05-10T20:11:07.537Z,15.70
2023-05-10T20:13:35.230Z,12.60
2023-05-10T20:16:06.104Z,16.93
2023-05-10T20:18:33.875Z,17.57
2023-05-10T20:21:01.928Z,17.70
2023-05-10T20:23:29.661Z,17.63
2023-05-10T20:25:57.349Z,20.90
2023-05-10T20:28:26.490Z,18.00
2023-05-10T20:30:55.513Z,21.53
2023-05-10T20:33:24.819Z,13.53
2023-05-10T20:35:52.556Z,14.30
2023-05-10T20:38:21.082Z,19.93
2023-05-10T20:40:49.077Z,17.23
2023-05-10T20:43:16.833Z,16.20
2023-05-10T20:45:44.490Z,18.10
2023-05-10T20:48:12.173Z,18.47
2023-05-10T20:50:41.265Z,17.17
2023-05-10T20:53:08.973Z,14.57
2023-05-10T20:55:36.706Z,14.13
2023-05-10T20:58:05.133Z,17.13
2023-05-10T21:00:33.163Z,17.43
2023-05-10T21:03:00.894Z,14.27
2023-05-10T21:05:28.641Z,15.07
2023-05-10T21:07:58.445Z,13.40
2023-05-10T21:10:28.327Z,15.03
2023-05-10T21:12:56.202Z,12.87
2023-05-10T21:15:24.449Z,13.47
2023-05-10T21:17:53.873Z,14.33
2023-05-10T21:20:21.669Z,15.27
2023-05-10T21:22:49.393Z,13.43
2023-05-10T21:25:19.090Z,14.87
2023-05-10T21:27:47.233Z,12.53
2023-05-10T21:30:15.303Z,16.17
2023-05-10T21:32:43.134Z,18.23
2023-05-10T21:35:11.157Z,18.60
2023-05-10T21:37:38.905Z,20.20
2023-05-10T21:42:01.641Z,15.87
2023-05-10T21:44:29.485Z,17.30
2023-05-10T21:46:57.172Z,17.60
2023-05-10T21:49:24.904Z,16.60
2023-05-10T21:51:52.616Z,18.73
2023-05-10T21:54:20.360Z,14.47
2023-05-10T21:56:48.483Z,18.13
2023-05-10T21:59:17.991Z,13.83
2023-05-10T22:01:45.893Z,17.97
2023-05-10T22:04:14.112Z,14.73
2023-05-10T22:06:41.853Z,15.13
2023-05-10T22:09:10.092Z,14.00
2023-05-10T22:11:37.752Z,14.27
2023-05-10T22:14:05.431Z,14.20
2023-05-10T22:16:34.470Z,15.57
2023-05-10T22:19:02.199Z,17.33
2023-05-10T22:21:29.994Z,13.23
2023-05-10T22:23:57.708Z,17.10
2023-05-10T22:26:26.084Z,16.93
2023-05-10T22:28:53.800Z,17.77
2023-05-10T22:31:21.571Z,16.07
2023-05-10T22:33:50.690Z,17.03
2023-05-10T22:36:18.350Z,15.10
2023-05-10T22:38:46.063Z,17.97
2023-05-10T22:41:13.701Z,14.50
2023-05-10T22:43:41.429Z,14.00
2023-05-10T22:46:09.271Z,13.30
2023-05-10T22:48:37.109Z,16.10
2023-05-10T22:51:06.332Z,20.77
2023-05-10T22:53:33.980Z,14.00
2023-05-10T22:56:01.791Z,16.80
2023-05-10T22:58:29.477Z,21.23
2023-05-10T23:00:57.169Z,21.80
2023-05-10T23:03:25.792Z,18.97
2023-05-10T23:05:53.501Z,18.47
2023-05-10T23:08:22.652Z,18.17
2023-05-10T23:10:50.497Z,23.10
2023-05-10T23:13:18.786Z,18.57
2023-05-10T23:15:46.553Z,22.10
2023-05-10T23:18:14.360Z,17.30
2023-05-10T23:20:42.687Z,15.20
2023-05-10T23:23:10.372Z,18.20
2023-05-10T23:25:39.524Z,18.70
2023-05-10T23:28:07.201Z,18.67
2023-05-10T23:30:34.910Z,20.80
2023-05-10T23:33:03.155Z,19.23
2023-05-10T23:35:30.958Z,20.20
2023-05-10T23:37:58.727Z,23.53
2023-05-10T23:40:26.585Z,23.73
2023-05-10T23:42:55.606Z,25.27
2023-05-10T23:45:23.291Z,21.97
2023-05-10T23:47:51.008Z,24.33
2023-05-10T23:50:19.092Z,23.77
2023-05-10T23:52:46.947Z,26.03
2023-05-10T23:55:14.825Z,23.90
2023-05-10T23:57:42.520Z,29.17
